Time;durP1;ratioP1;P1;durP2;ratioP2;P2;SDS_P1;SDS_P2;PMS_P1;PMS_P2;Temp;Humidity;BMP_temperature;BMP_pressure;BME280_temperature;BME280_humidity;BME280_pressure;Samples;Min_cycle;Max_cycle;Signal;HPM_P1;HPM_P2
2023/10/19 00:01:38;;;;;;;29.63;20.00;;;;;;;13.21;100.00;98826.41;5104277;28;20218;-71
2023/10/19 00:04:15;;;;;;;31.90;20.33;;;;;;;13.23;100.00;98824.34;5101181;28;20205;-71
2023/10/19 00:07:21;;;;;;;28.70;19.40;;;;;;;13.31;100.00;98826.81;5102198;27;20202;-69
2023/10/19 00:09:53;;;;;;;27.77;19.07;;;;;;;13.22;100.00;98812.06;5097194;28;20635;-70
2023/10/19 00:12:37;;;;;;;31.87;19.60;;;;;;;13.19;100.00;98819.44;5099528;28;20873;-72
2023/10/19 00:15:09;;;;;;;28.63;18.13;;;;;;;13.19;100.00;98814.09;5103357;28;20594;-69
2023/10/19 00:21:23;;;;;;;28.03;19.23;;;;;;;13.14;100.00;98815.75;5063254;28;20213;-70
2023/10/19 00:24:05;;;;;;;31.60;19.00;;;;;;;13.23;100.00;98806.53;5102129;27;20786;-71
2023/10/19 00:48:11;;;;;;;30.50;18.10;;;;;;;13.26;100.00;98808.00;4989633;28;20587;-69
2023/10/19 00:50:52;;;;;;;27.77;18.40;;;;;;;13.19;100.00;98792.81;4984018;28;20867;-69
2023/10/19 00:57:36;;;;;;;30.07;19.00;;;;;;;13.16;100.00;98793.25;4980310;28;20376;-70
2023/10/19 01:00:29;;;;;;;29.63;19.53;;;;;;;13.15;100.00;98796.94;4981882;28;20224;-70
2023/10/19 01:03:20;;;;;;;29.70;19.17;;;;;;;13.17;100.00;98799.41;5066923;27;20638;-70
2023/10/19 01:06:32;;;;;;;29.40;18.53;;;;;;;13.14;100.00;98781.16;5101022;27;20198;-70
2023/10/19 01:09:14;;;;;;;32.00;19.33;;;;;;;13.19;100.00;98781.38;5105417;28;20259;-69
2023/10/19 01:19:18;;;;;;;30.10;19.60;;;;;;;13.24;100.00;98778.09;5041062;28;20759;-70
2023/10/19 01:26:02;;;;;;;28.83;19.23;;;;;;;13.30;100.00;98772.75;5084630;28;20318;-74
2023/10/19 01:36:42;;;;;;;;;;;;;;;;;;;;;
2023/10/19 01:44:26;;;;;;;28.33;18.27;;;;;;;13.27;100.00;98748.41;4930440;29;20219;-69
2023/10/19 01:47:36;;;;;;;25.53;16.70;;;;;;;13.32;100.00;98753.91;4910294;29;20205;-70
2023/10/19 02:23:57;;;;;;;22.57;15.83;;;;;;;13.39;100.00;98722.78;4893711;29;20229;-69
2023/10/19 02:26:46;;;;;;;24.90;17.23;;;;;;;13.43;100.00;98711.53;5044530;28;20200;-70
2023/10/19 02:48:47;;;;;;;25.53;16.83;;;;;;;13.39;100.00;98698.81;4898023;29;20207;-68
2023/10/19 02:51:35;;;;;;;25.53;17.30;;;;;;;13.39;100.00;98701.47;4924571;28;20215;-70
2023/10/19 02:58:18;;;;;;;26.40;16.37;;;;;;;13.43;100.00;98692.88;5060169;28;20911;-72
2023/10/19 03:08:57;;;;;;;25.23;16.03;;;;;;;13.50;100.00;98706.16;4920128;29;20223;-71
2023/10/19 03:12:13;;;;;;;24.73;16.03;;;;;;;13.47;100.00;98703.91;4946774;28;20241;-70
2023/10/19 03:14:52;;;;;;;24.10;16.07;;;;;;;13.49;100.00;98708.00;4945620;28;20210;-69
2023/10/19 03:24:23;;;;;;;25.53;17.33;;;;;;;13.55;100.00;98696.50;4922927;28;20203;-69
2023/10/19 03:31:44;;;;;;;27.37;17.50;;;;;;;13.41;100.00;98686.13;4968877;28;20218;-72
2023/10/19 03:34:59;;;;;;;25.67;18.57;;;;;;;13.40;100.00;98684.50;5055732;28;20227;-69
2023/10/19 04:00:15;;;;;;;22.47;15.90;;;;;;;13.26;100.00;98649.13;4949045;28;20323;-69
2023/10/19 04:10:47;;;;;;;22.73;16.70;;;;;;;13.44;100.00;98627.16;5020647;28;20247;-70
2023/10/19 04:13:59;;;;;;;21.50;16.23;;;;;;;13.46;100.00;98641.03;5022658;28;20253;-69
2023/10/19 04:20:42;;;;;;;24.23;15.37;;;;;;;13.52;100.00;98637.56;4997750;28;20345;-72
2023/10/19 04:30:51;;;;;;;24.20;17.20;;;;;;;13.64;100.00;98635.03;5018039;28;20213;-70
2023/10/19 04:38:10;;;;;;;28.07;18.33;;;;;;;13.61;100.00;98630.16;5048394;28;20201;-69
2023/10/19 05:03:18;;;;;;;35.50;21.03;;;;;;;13.65;100.00;98615.38;5022223;28;20563;-69
2023/10/19 05:06:23;;;;;;;33.93;21.00;;;;;;;13.68;100.00;98610.44;4986196;28;20211;-71
2023/10/19 05:19:27;;;;;;;38.73;24.13;;;;;;;13.52;100.00;98611.75;5023384;28;20559;-69
2023/10/19 05:22:24;;;;;;;35.87;21.23;;;;;;;13.52;100.00;98625.06;5006270;28;20639;-70
2023/10/19 05:33:41;;;;;;;39.50;22.00;;;;;;;13.53;100.00;98609.91;4945905;29;20217;-69
2023/10/19 05:36:49;;;;;;;43.77;24.07;;;;;;;13.60;100.00;98616.00;4916122;28;20283;-72
2023/10/19 05:39:33;;;;;;;40.00;22.30;;;;;;;13.53;100.00;98612.56;4967291;28;20233;-72
2023/10/19 05:43:11;;;;;;;33.73;22.07;;;;;;;13.48;100.00;98613.19;5005071;28;20672;-69
2023/10/19 05:45:48;;;;;;;38.57;24.40;;;;;;;13.58;100.00;98610.06;5020017;28;20615;-69
2023/10/19 05:48:27;;;;;;;42.87;23.97;;;;;;;13.66;100.00;98612.50;5025068;28;20209;-69
2023/10/19 05:51:34;;;;;;;37.73;23.80;;;;;;;13.62;100.00;98621.94;4985751;28;20268;-70
2023/10/19 05:54:34;;;;;;;;;;;;;;;;;;;;;
2023/10/19 05:58:01;;;;;;;;;;;;;;;;;;;;;
2023/10/19 06:01:28;;;;;;;30.77;19.83;;;;;;;13.64;100.00;98624.38;5025302;28;20259;-70
2023/10/19 06:04:17;;;;;;;36.17;21.90;;;;;;;13.67;100.00;98632.78;5074576;28;20207;-68
2023/10/19 06:11:49;;;;;;;32.27;20.50;;;;;;;13.71;100.00;98642.00;5061203;28;20698;-69
2023/10/19 06:26:12;;;;;;;28.93;18.13;;;;;;;13.80;100.00;98650.53;4895424;29;20271;-66
2023/10/19 06:29:30;;;;;;;28.70;19.07;;;;;;;13.82;100.00;98653.78;4993029;28;20208;-66
2023/10/19 06:32:04;;;;;;;26.27;18.80;;;;;;;13.82;100.00;98635.16;5034136;28;20276;-66
2023/10/19 06:34:41;;;;;;;26.97;18.93;;;;;;;13.75;100.00;98643.19;5072956;28;20681;-65
2023/10/19 06:37:16;;;;;;;31.73;19.13;;;;;;;13.78;100.00;98632.09;5074964;28;20647;-66
2023/10/19 06:39:54;;;;;;;27.73;18.10;;;;;;;13.81;100.00;98637.00;5072113;28;20210;-67
2023/10/19 06:42:36;;;;;;;25.33;17.93;;;;;;;13.86;100.00;98631.03;5072949;28;20949;-67
2023/10/19 06:45:21;;;;;;;25.63;17.27;;;;;;;13.88;100.00;98627.13;5073229;28;20290;-69
2023/10/19 06:47:55;;;;;;;26.73;16.80;;;;;;;13.94;100.00;98634.25;5071836;28;20230;-67
2023/10/19 06:50:25;;;;;;;30.20;17.50;;;;;;;13.98;100.00;98620.53;5068926;28;20229;-67
2023/10/19 06:52:57;;;;;;;23.73;17.10;;;;;;;14.02;100.00;98629.72;5073955;28;20218;-66
2023/10/19 06:56:11;;;;;;;24.63;17.03;;;;;;;14.06;100.00;98628.25;4974976;28;20571;-67
2023/10/19 06:59:08;;;;;;;25.57;16.17;;;;;;;14.08;100.00;98631.50;4978240;28;20736;-66
2023/10/19 07:01:50;;;;;;;23.27;16.27;;;;;;;14.13;100.00;98626.38;4980255;28;20236;-67
2023/10/19 07:07:51;;;;;;;25.63;15.10;;;;;;;14.15;100.00;98624.31;4975645;28;20297;-67
2023/10/19 07:10:23;;;;;;;22.07;14.60;;;;;;;14.17;100.00;98630.22;4980764;28;20206;-66
2023/10/19 07:13:03;;;;;;;20.53;14.57;;;;;;;14.17;99.65;98627.56;4980283;28;20301;-67
2023/10/19 07:15:41;;;;;;;28.10;15.97;;;;;;;14.27;99.83;98630.56;4980811;28;20206;-67
2023/10/19 07:18:20;;;;;;;23.03;16.53;;;;;;;14.40;100.00;98629.69;4896468;28;20401;-66
2023/10/19 07:21:02;;;;;;;28.30;16.33;;;;;;;14.38;100.00;98627.19;4978688;28;20226;-67
2023/10/19 07:23:33;;;;;;;20.97;14.53;;;;;;;14.37;100.00;98630.91;4978498;28;20225;-67
2023/10/19 07:29:05;;;;;;;22.70;15.13;;;;;;;14.46;100.00;98634.97;4978741;28;20218;-67
2023/10/19 07:32:02;;;;;;;20.37;14.97;;;;;;;14.39;100.00;98636.88;4971903;28;20224;-67
2023/10/19 07:35:00;;;;;;;21.70;15.27;;;;;;;14.41;100.00;98626.81;5072693;28;21194;-66
2023/10/19 07:37:48;;;;;;;23.57;16.17;;;;;;;14.42;100.00;98624.97;5038028;28;20964;-66
2023/10/19 07:52:53;;;;;;;18.20;13.57;;;;;;;14.35;99.36;98611.63;4886783;29;20210;-68
2023/10/19 07:55:38;;;;;;;23.33;15.97;;;;;;;14.43;98.14;98614.06;4915917;28;20645;-69
2023/10/19 07:58:39;;;;;;;22.03;14.43;;;;;;;14.51;98.26;98608.44;4948270;28;20211;-68
2023/10/19 08:04:29;;;;;;;23.40;16.43;;;;;;;14.66;95.63;98629.47;4914081;29;20746;-68
2023/10/19 08:07:53;;;;;;;;;;;;;;;;;;;;;
2023/10/19 08:10:54;;;;;;;21.13;14.90;;;;;;;14.75;94.68;98624.69;4979968;28;20948;-68
2023/10/19 08:22:42;;;;;;;19.27;13.20;;;;;;;15.21;91.37;98622.34;5004462;28;20236;-69
2023/10/19 08:36:59;;;;;;;21.03;15.00;;;;;;;15.38;93.69;98606.56;4985866;28;20726;-68
2023/10/19 08:45:49;;;;;;;22.20;16.40;;;;;;;15.47;94.05;98588.38;5074066;28;20289;-68
2023/10/19 08:54:53;;;;;;;20.40;13.77;;;;;;;15.79;87.97;98597.81;5061583;28;20605;-67
2023/10/19 08:57:38;;;;;;;18.87;13.17;;;;;;;16.18;84.99;98591.09;5075134;28;20202;-68
2023/10/19 09:03:13;;;;;;;19.40;13.27;;;;;;;17.11;81.41;98584.97;5072164;28;20288;-67
2023/10/19 09:05:57;;;;;;;16.97;12.63;;;;;;;18.08;75.84;98580.44;5075821;28;20699;-67
2023/10/19 09:08:41;;;;;;;14.20;11.50;;;;;;;19.91;67.37;98575.72;5075938;28;20194;-68
2023/10/19 09:15:49;;;;;;;17.97;12.27;;;;;;;18.51;73.15;98585.16;5076813;28;20206;-68
2023/10/19 09:21:39;;;;;;;17.13;13.60;;;;;;;17.53;78.60;98578.31;5075559;28;20215;-68
2023/10/19 09:24:35;;;;;;;;;;;;;;;;;;;;;
2023/10/19 09:27:25;;;;;;;18.87;12.97;;;;;;;17.04;83.69;98578.94;5045089;28;21033;-68
2023/10/19 09:30:18;;;;;;;20.20;14.00;;;;;;;17.06;84.99;98566.13;5075973;28;20297;-71
2023/10/19 09:33:13;;;;;;;17.60;14.43;;;;;;;17.14;85.62;98566.56;5073902;28;20200;-67
2023/10/19 09:36:16;;;;;;;20.13;14.00;;;;;;;17.33;84.57;98559.16;5054790;28;20333;-68
2023/10/19 09:39:16;;;;;;;18.63;14.23;;;;;;;17.42;84.97;98552.38;5073831;28;20235;-68
2023/10/19 09:41:59;;;;;;;20.33;13.37;;;;;;;17.42;83.10;98548.88;5069433;28;20242;-67
2023/10/19 09:45:07;;;;;;;18.97;12.87;;;;;;;17.54;85.28;98542.44;5072485;28;20207;-67
2023/10/19 09:47:48;;;;;;;20.67;14.07;;;;;;;17.52;84.53;98549.91;5074204;28;20218;-67
2023/10/19 09:50:54;;;;;;;17.80;11.90;;;;;;;17.39;83.79;98544.84;5076747;28;20191;-67
2023/10/19 09:53:37;;;;;;;21.10;14.53;;;;;;;17.40;85.44;98543.78;5069051;28;20735;-67
2023/10/19 09:56:27;;;;;;;17.70;11.80;;;;;;;17.34;83.74;98542.03;5076552;28;20207;-67
2023/10/19 09:59:33;;;;;;;23.17;14.00;;;;;;;17.37;88.26;98541.56;5066841;28;20714;-67
2023/10/19 10:02:18;;;;;;;22.13;14.70;;;;;;;17.48;87.73;98543.41;5070507;28;20239;-68
2023/10/19 10:04:56;;;;;;;22.47;14.37;;;;;;;17.56;88.03;98545.69;5075259;28;20226;-68
2023/10/19 10:07:28;;;;;;;20.07;14.60;;;;;;;17.56;88.41;98551.06;5075684;28;20563;-68
2023/10/19 10:10:18;;;;;;;19.20;13.47;;;;;;;17.51;88.79;98542.91;5074017;28;20195;-68
2023/10/19 10:12:54;;;;;;;19.93;13.40;;;;;;;17.43;89.12;98551.31;5074929;28;20252;-68
2023/10/19 10:15:42;;;;;;;19.63;14.53;;;;;;;17.51;88.49;98542.91;5073876;28;20209;-68
2023/10/19 10:18:24;;;;;;;21.30;13.73;;;;;;;17.43;89.50;98539.78;5073311;28;20288;-68
2023/10/19 10:21:25;;;;;;;19.67;13.07;;;;;;;17.31;89.71;98534.50;5058664;28;20191;-68
2023/10/19 10:24:40;;;;;;;19.77;13.47;;;;;;;17.23;91.03;98546.41;5077134;28;20214;-67
2023/10/19 10:28:05;;;;;;;23.43;15.67;;;;;;;17.15;90.73;98537.94;5054905;28;20219;-67
2023/10/19 10:49:16;;;;;;;18.97;13.07;;;;;;;16.71;95.57;98518.78;5074760;28;20194;-68
2023/10/19 10:55:39;;;;;;;22.17;16.90;;;;;;;16.67;97.29;98539.03;5071149;28;20272;-68
2023/10/19 11:02:33;;;;;;;21.47;16.47;;;;;;;16.67;97.24;98527.53;5073420;28;20368;-68
2023/10/19 11:45:11;;;;;;;27.03;18.87;;;;;;;16.33;90.43;98479.13;5074212;28;20260;-69
2023/10/19 11:55:24;;;;;;;26.30;19.10;;;;;;;16.48;98.42;98468.78;5076442;28;20732;-69
2023/10/19 12:12:41;;;;;;;30.20;21.60;;;;;;;16.38;93.61;98457.84;5079290;28;20629;-69
2023/10/19 12:20:24;;;;;;;;;;;;;;;;;;;;;
2023/10/19 12:30:36;;;;;;;63.13;28.50;;;;;;;16.30;95.43;98468.06;5077266;28;20211;-67
2023/10/19 12:33:26;;;;;;;42.13;22.70;;;;;;;16.30;93.88;98471.56;5074342;28;20230;-69
2023/10/19 12:35:57;;;;;;;35.30;19.57;;;;;;;16.31;95.33;98469.72;5074706;28;20754;-66
2023/10/19 12:38:27;;;;;;;26.50;20.87;;;;;;;16.33;98.80;98470.28;5076078;28;20600;-68
2023/10/19 12:40:58;;;;;;;24.30;16.90;;;;;;;16.29;91.63;98463.78;5077068;28;20198;-67
2023/10/19 12:43:26;;;;;;;29.97;21.67;;;;;;;16.34;92.56;98462.03;5071546;28;20813;-68
2023/10/19 12:45:58;;;;;;;32.23;23.37;;;;;;;16.43;99.74;98460.66;5072668;28;20196;-68
2023/10/19 12:48:34;;;;;;;32.07;23.63;;;;;;;16.47;100.00;98444.91;5073749;28;20297;-67
2023/10/19 12:51:03;;;;;;;37.03;24.97;;;;;;;16.44;100.00;98440.88;5072811;28;20203;-68
2023/10/19 12:53:32;;;;;;;26.07;18.70;;;;;;;16.41;100.00;98432.50;5074912;28;20242;-67
2023/10/19 12:56:11;;;;;;;36.73;23.87;;;;;;;16.48;100.00;98435.84;5025050;28;20295;-68
2023/10/19 12:58:45;;;;;;;30.77;22.93;;;;;;;16.43;100.00;98454.47;5071867;28;20305;-67
2023/10/19 13:01:18;;;;;;;29.30;20.00;;;;;;;16.42;96.15;98452.84;5073783;28;20261;-67
2023/10/19 13:03:51;;;;;;;31.90;23.53;;;;;;;16.63;100.00;98446.91;5075626;28;20812;-68
2023/10/19 13:06:28;;;;;;;30.00;23.03;;;;;;;16.70;100.00;98446.78;5073539;28;20203;-68
2023/10/19 13:09:15;;;;;;;31.73;23.73;;;;;;;16.65;100.00;98452.03;5066778;28;20585;-68
2023/10/19 13:11:44;;;;;;;33.53;24.83;;;;;;;16.62;100.00;98442.63;5070895;28;20208;-68
2023/10/19 13:14:13;;;;;;;30.27;21.93;;;;;;;16.65;100.00;98441.31;5072736;28;20211;-68
2023/10/19 13:16:43;;;;;;;31.50;23.10;;;;;;;16.63;100.00;98449.56;5072222;28;20214;-67
2023/10/19 13:19:13;;;;;;;33.43;23.37;;;;;;;16.61;100.00;98442.81;5074931;28;20722;-68
2023/10/19 13:21:44;;;;;;;33.57;24.07;;;;;;;16.50;100.00;98444.47;5075572;28;20212;-68
2023/10/19 13:24:13;;;;;;;30.43;21.40;;;;;;;16.44;100.00;98442.75;5074738;28;20191;-69
2023/10/19 13:26:45;;;;;;;34.23;24.23;;;;;;;16.44;100.00;98440.88;5075469;28;20292;-68
2023/10/19 13:29:14;;;;;;;38.73;23.47;;;;;;;16.53;100.00;98435.97;5078632;28;20230;-71
2023/10/19 13:31:49;;;;;;;33.53;24.60;;;;;;;16.51;100.00;98435.38;5077288;28;20665;-67
2023/10/19 13:34:17;;;;;;;32.47;23.80;;;;;;;16.51;100.00;98435.38;5073717;28;20194;-68
2023/10/19 13:36:46;;;;;;;35.17;23.63;;;;;;;16.50;100.00;98431.09;5074423;28;20211;-68
2023/10/19 13:39:16;;;;;;;28.70;20.23;;;;;;;16.51;100.00;98436.22;5074745;28;20290;-68
2023/10/19 13:41:44;;;;;;;32.53;22.30;;;;;;;16.53;100.00;98422.59;5076021;28;20219;-67
2023/10/19 13:44:13;;;;;;;29.10;20.77;;;;;;;16.54;100.00;98422.34;5071932;28;20234;-68
2023/10/19 13:46:41;;;;;;;30.73;21.30;;;;;;;16.53;100.00;98410.00;5074762;28;20211;-67
2023/10/19 13:49:11;;;;;;;25.53;19.53;;;;;;;16.57;100.00;98410.38;5072356;28;20204;-67
2023/10/19 13:51:39;;;;;;;29.17;20.73;;;;;;;16.54;100.00;98405.47;5072549;28;20257;-67
2023/10/19 13:54:07;;;;;;;25.60;17.83;;;;;;;16.51;100.00;98405.97;5077506;28;20660;-67
2023/10/19 13:56:35;;;;;;;26.97;18.87;;;;;;;16.58;100.00;98412.00;5076712;28;20199;-69
2023/10/19 13:59:07;;;;;;;26.53;16.90;;;;;;;16.60;100.00;98401.06;5073724;28;20577;-67
2023/10/19 14:01:38;;;;;;;24.23;16.97;;;;;;;16.65;100.00;98393.16;5074433;28;20211;-68
2023/10/19 14:04:06;;;;;;;29.73;16.43;;;;;;;16.59;100.00;98389.53;5072616;28;20576;-69
2023/10/19 14:06:40;;;;;;;22.97;16.27;;;;;;;16.60;100.00;98391.19;5074987;28;20605;-67
2023/10/19 14:09:26;;;;;;;25.07;16.73;;;;;;;16.59;100.00;98394.09;5075559;28;20642;-68
2023/10/19 14:12:03;;;;;;;18.80;15.90;;;;;;;16.56;100.00;98392.69;5073346;28;20203;-67
2023/10/19 14:14:32;;;;;;;24.17;15.00;;;;;;;16.55;100.00;98380.34;5071316;28;20625;-68
2023/10/19 14:17:00;;;;;;;21.00;13.27;;;;;;;16.55;100.00;98369.66;5072204;28;20199;-69
2023/10/19 14:19:32;;;;;;;21.00;14.73;;;;;;;16.53;100.00;98353.03;5071493;28;20210;-68
2023/10/19 14:22:10;;;;;;;21.00;14.00;;;;;;;16.52;100.00;98344.22;5073660;28;20206;-68
2023/10/19 14:25:15;;;;;;;18.10;12.33;;;;;;;16.54;100.00;98327.91;5074928;28;20205;-68
2023/10/19 14:27:49;;;;;;;20.97;12.27;;;;;;;16.51;100.00;98323.03;5073465;28;20200;-68
2023/10/19 14:30:19;;;;;;;12.83;9.17;;;;;;;16.45;100.00;98310.59;5074102;28;20199;-68
2023/10/19 14:32:52;;;;;;;16.93;12.40;;;;;;;16.46;100.00;98304.19;5039016;28;20243;-68
2023/10/19 14:35:41;;;;;;;16.80;11.63;;;;;;;16.50;100.00;98292.81;5070984;28;20729;-69
2023/10/19 14:38:17;;;;;;;18.20;11.97;;;;;;;16.46;100.00;98280.13;5073264;28;20633;-69
2023/10/19 14:40:48;;;;;;;19.80;12.30;;;;;;;16.46;100.00;98272.91;5077717;28;20712;-69
2023/10/19 14:43:17;;;;;;;18.87;10.93;;;;;;;16.49;100.00;98252.91;5077730;28;20270;-68
2023/10/19 14:45:46;;;;;;;14.80;10.70;;;;;;;16.45;100.00;98255.25;5063266;28;20200;-69
2023/10/19 14:48:34;;;;;;;17.93;11.40;;;;;;;16.52;100.00;98249.78;5076090;28;20203;-69
2023/10/19 14:51:07;;;;;;;18.27;11.40;;;;;;;16.53;100.00;98243.38;5077331;28;20196;-67
2023/10/19 14:53:38;;;;;;;16.93;11.43;;;;;;;16.62;100.00;98250.00;5076109;28;20203;-67
2023/10/19 14:56:09;;;;;;;16.03;10.33;;;;;;;16.75;100.00;98262.25;5077611;28;20203;-67
2023/10/19 14:58:39;;;;;;;14.50;10.60;;;;;;;16.79;100.00;98256.19;5076509;28;21673;-69
2023/10/19 15:01:14;;;;;;;14.47;9.80;;;;;;;16.79;100.00;98255.38;5077989;28;20209;-69
2023/10/19 15:03:50;;;;;;;18.53;11.33;;;;;;;16.83;100.00;98251.94;5080283;28;20235;-68
2023/10/19 15:06:29;;;;;;;16.77;9.97;;;;;;;16.81;100.00;98227.28;5081091;28;20252;-69
2023/10/19 15:09:20;;;;;;;15.43;11.30;;;;;;;16.81;100.00;98221.94;5077471;28;20211;-68
2023/10/19 15:11:48;;;;;;;12.83;8.23;;;;;;;16.76;100.00;98207.66;5075317;28;20211;-69
2023/10/19 15:14:17;;;;;;;24.60;10.83;;;;;;;16.76;100.00;98223.72;5074416;28;20689;-70
2023/10/19 15:16:45;;;;;;;16.50;11.53;;;;;;;16.90;100.00;98230.38;5072838;28;20203;-69
2023/10/19 15:19:19;;;;;;;17.63;11.70;;;;;;;16.91;100.00;98215.94;5072421;28;20207;-69
2023/10/19 15:21:47;;;;;;;19.57;12.93;;;;;;;16.91;100.00;98208.72;5069382;28;20305;-70
2023/10/19 15:24:25;;;;;;;19.17;13.43;;;;;;;16.96;100.00;98213.34;5071831;28;20744;-69
2023/10/19 15:26:53;;;;;;;15.50;11.43;;;;;;;16.95;100.00;98217.09;5072206;28;20815;-69
2023/10/19 15:29:22;;;;;;;16.73;12.03;;;;;;;17.01;100.00;98173.28;5072607;28;20620;-69
2023/10/19 15:31:52;;;;;;;19.77;12.50;;;;;;;16.92;100.00;98164.84;5073128;28;20245;-69
2023/10/19 15:34:21;;;;;;;15.10;10.83;;;;;;;16.95;100.00;98158.19;5072610;28;20204;-69
2023/10/19 15:36:49;;;;;;;21.63;10.70;;;;;;;16.82;100.00;98170.03;5071580;28;20558;-71
2023/10/19 15:39:23;;;;;;;20.00;14.53;;;;;;;16.89;100.00;98178.72;5069046;28;20199;-69
2023/10/19 15:41:53;;;;;;;21.30;12.90;;;;;;;16.92;100.00;98169.38;5074589;28;20354;-67
2023/10/19 15:44:36;;;;;;;18.03;14.13;;;;;;;16.97;100.00;98160.63;5070242;28;20223;-68
2023/10/19 15:47:09;;;;;;;23.87;14.60;;;;;;;16.95;100.00;98146.69;5070661;28;20221;-70
2023/10/19 15:49:46;;;;;;;16.73;12.90;;;;;;;16.82;100.00;98156.66;5066958;28;20789;-69
2023/10/19 15:52:16;;;;;;;19.77;13.77;;;;;;;16.83;100.00;98168.97;5072015;28;20199;-68
2023/10/19 15:54:45;;;;;;;22.80;14.83;;;;;;;16.88;100.00;98163.72;5069965;28;20211;-69
2023/10/19 15:57:17;;;;;;;21.83;14.67;;;;;;;16.78;100.00;98174.25;5070607;28;20600;-69
2023/10/19 15:59:46;;;;;;;23.83;15.87;;;;;;;16.80;100.00;98177.50;5069850;28;20206;-67
2023/10/19 16:02:16;;;;;;;22.57;14.90;;;;;;;16.79;100.00;98186.59;5068868;28;20223;-69
2023/10/19 16:04:46;;;;;;;20.30;14.70;;;;;;;16.78;100.00;98184.97;5068750;28;20235;-69
2023/10/19 16:07:15;;;;;;;16.97;10.63;;;;;;;16.70;100.00;98192.59;5069803;28;20235;-69
2023/10/19 16:09:49;;;;;;;15.13;9.73;;;;;;;16.63;100.00;98192.72;5069101;28;21166;-69
2023/10/19 16:12:19;;;;;;;18.70;12.20;;;;;;;16.65;100.00;98198.66;5073235;28;20244;-68
2023/10/19 16:14:48;;;;;;;25.87;15.07;;;;;;;16.70;100.00;98181.88;5070078;28;20304;-68
2023/10/19 16:17:18;;;;;;;22.67;15.30;;;;;;;16.66;100.00;98183.41;5068617;28;20207;-69
2023/10/19 16:19:47;;;;;;;21.33;13.83;;;;;;;16.67;100.00;98182.38;5068490;28;20309;-69
2023/10/19 16:22:16;;;;;;;22.10;14.33;;;;;;;16.72;100.00;98180.56;5072087;28;20196;-68
2023/10/19 16:24:45;;;;;;;21.13;14.87;;;;;;;16.69;100.00;98174.91;5070449;28;20722;-68
2023/10/19 16:27:14;;;;;;;18.60;14.63;;;;;;;16.64;100.00;98169.47;5069648;28;20272;-68
2023/10/19 16:29:43;;;;;;;18.73;13.80;;;;;;;16.63;100.00;98182.03;5069707;28;20203;-69
2023/10/19 16:32:12;;;;;;;24.67;14.00;;;;;;;16.62;100.00;98175.06;5068173;28;20231;-69
2023/10/19 16:34:40;;;;;;;23.87;14.20;;;;;;;16.62;100.00;98177.75;5075893;28;20211;-69
2023/10/19 16:37:08;;;;;;;16.57;11.37;;;;;;;16.53;100.00;98177.28;5073987;28;20215;-68
2023/10/19 16:39:37;;;;;;;14.03;9.23;;;;;;;16.46;100.00;98183.84;5072287;28;20720;-68
2023/10/19 16:42:05;;;;;;;14.50;9.53;;;;;;;16.46;100.00;98186.50;5075547;28;20684;-69
2023/10/19 16:44:33;;;;;;;15.13;8.90;;;;;;;16.48;100.00;98187.09;5074828;28;20231;-72
2023/10/19 16:47:04;;;;;;;11.40;8.37;;;;;;;16.52;100.00;98201.63;5072605;28;20261;-69
2023/10/19 16:49:34;;;;;;;20.97;14.30;;;;;;;16.56;100.00;98205.41;5074034;28;20260;-68
2023/10/19 16:52:03;;;;;;;20.67;14.77;;;;;;;16.67;100.00;98191.19;5074444;28;20210;-67
2023/10/19 16:54:31;;;;;;;22.60;15.30;;;;;;;16.59;100.00;98199.59;5075475;28;20202;-68
2023/10/19 16:57:01;;;;;;;21.50;13.83;;;;;;;16.55;100.00;98195.75;5071939;28;20215;-68
2023/10/19 16:59:31;;;;;;;18.30;13.90;;;;;;;16.59;100.00;98204.94;5074605;28;20211;-68
2023/10/19 17:01:59;;;;;;;18.53;11.57;;;;;;;16.51;100.00;98194.66;5074564;28;20207;-68
2023/10/19 17:04:29;;;;;;;23.23;13.03;;;;;;;16.51;100.00;98186.63;5073343;28;20222;-68
2023/10/19 17:06:59;;;;;;;22.97;14.40;;;;;;;16.58;100.00;98197.97;5073275;28;20229;-68
2023/10/19 17:09:27;;;;;;;21.60;16.10;;;;;;;16.54;100.00;98199.50;5074352;28;20199;-68
2023/10/19 17:11:55;;;;;;;24.20;15.97;;;;;;;16.52;100.00;98215.81;5074619;28;20520;-69
2023/10/19 17:14:24;;;;;;;20.57;14.73;;;;;;;16.53;100.00;98216.63;5073941;28;20693;-68
2023/10/19 17:16:55;;;;;;;20.57;14.17;;;;;;;16.54;100.00;98210.19;5070214;28;20277;-68
2023/10/19 17:19:25;;;;;;;25.33;14.37;;;;;;;16.57;100.00;98209.72;5073394;28;20206;-68
2023/10/19 17:21:58;;;;;;;21.33;14.63;;;;;;;16.56;100.00;98208.91;5074007;28;20203;-67
2023/10/19 17:24:28;;;;;;;25.30;14.70;;;;;;;16.61;100.00;98221.59;5071775;28;20223;-68
2023/10/19 17:26:56;;;;;;;21.03;15.37;;;;;;;16.62;100.00;98219.75;5072517;28;20714;-68
2023/10/19 17:29:26;;;;;;;22.30;14.47;;;;;;;16.60;100.00;98201.22;5072367;28;20210;-66
2023/10/19 17:31:54;;;;;;;24.07;16.60;;;;;;;16.57;100.00;98204.38;5076054;28;20211;-68
2023/10/19 17:34:23;;;;;;;20.90;15.40;;;;;;;16.56;100.00;98210.78;5072546;28;20226;-68
2023/10/19 17:36:51;;;;;;;22.23;15.40;;;;;;;16.55;100.00;98193.09;5070488;28;20205;-68
2023/10/19 17:39:22;;;;;;;30.63;16.67;;;;;;;16.56;100.00;98190.19;5072050;28;20215;-67
2023/10/19 17:41:51;;;;;;;27.80;17.17;;;;;;;16.59;100.00;98191.56;5071120;28;20241;-67
2023/10/19 17:44:22;;;;;;;29.67;17.47;;;;;;;16.54;100.00;98186.94;5075867;28;20573;-67
2023/10/19 17:46:59;;;;;;;24.43;17.50;;;;;;;16.56;100.00;98187.50;5072083;28;20234;-68
2023/10/19 17:49:28;;;;;;;27.67;17.60;;;;;;;16.53;100.00;98189.88;5074978;28;20280;-67
2023/10/19 17:51:56;;;;;;;25.37;17.37;;;;;;;16.51;100.00;98190.09;5071860;28;20199;-67
2023/10/19 17:54:26;;;;;;;28.80;17.53;;;;;;;16.47;100.00;98196.16;5072851;28;20560;-68
2023/10/19 17:56:54;;;;;;;26.97;16.67;;;;;;;16.44;100.00;98191.31;5073534;28;20214;-68
2023/10/19 17:59:23;;;;;;;27.33;17.00;;;;;;;16.46;100.00;98198.03;5073368;28;20210;-69
2023/10/19 18:01:52;;;;;;;24.43;16.77;;;;;;;16.59;100.00;98196.09;5073062;28;20207;-68
2023/10/19 18:04:28;;;;;;;25.43;18.60;;;;;;;16.60;100.00;98195.06;5072746;28;21524;-68
2023/10/19 18:06:56;;;;;;;27.03;18.00;;;;;;;16.60;100.00;98193.19;5075058;28;20202;-69
2023/10/19 18:09:37;;;;;;;26.70;16.97;;;;;;;16.54;100.00;98183.44;5074928;28;20196;-68
2023/10/19 18:12:07;;;;;;;22.70;17.80;;;;;;;16.58;100.00;98184.59;5073219;28;20192;-69
2023/10/19 18:14:35;;;;;;;29.07;18.27;;;;;;;16.59;100.00;98169.34;5073156;28;20763;-69
2023/10/19 18:17:09;;;;;;;24.30;18.87;;;;;;;16.60;100.00;98161.09;5072369;28;20199;-69
2023/10/19 18:19:40;;;;;;;27.57;18.23;;;;;;;16.55;100.00;98158.31;5073446;28;20211;-67
2023/10/19 18:22:08;;;;;;;29.07;19.53;;;;;;;16.54;100.00;98154.84;5071416;28;20215;-67
2023/10/19 18:24:38;;;;;;;26.17;18.70;;;;;;;16.55;100.00;98147.63;5072343;28;20211;-67
2023/10/19 18:27:06;;;;;;;22.63;16.60;;;;;;;16.52;100.00;98148.13;5076204;28;20215;-68
2023/10/19 18:29:35;;;;;;;22.40;14.77;;;;;;;16.45;100.00;98131.41;5074878;28;20649;-68
2023/10/19 18:32:03;;;;;;;21.90;13.90;;;;;;;16.47;100.00;98140.00;5072934;28;20238;-69
2023/10/19 18:34:36;;;;;;;28.53;18.30;;;;;;;16.52;100.00;98158.81;5074896;28;20522;-69
2023/10/19 18:37:06;;;;;;;25.17;18.23;;;;;;;16.55;100.00;98159.13;5070547;28;20199;-69
2023/10/19 18:39:35;;;;;;;28.63;18.10;;;;;;;16.59;100.00;98151.44;5069365;28;20638;-68
2023/10/19 18:42:09;;;;;;;21.47;14.30;;;;;;;16.55;100.00;98131.56;5070583;28;20237;-69
2023/10/19 18:44:39;;;;;;;23.13;14.60;;;;;;;16.50;100.00;98123.47;5072310;28;20207;-69
2023/10/19 18:47:07;;;;;;;19.63;12.87;;;;;;;16.47;100.00;98126.63;5073128;28;20210;-68
2023/10/19 18:49:36;;;;;;;24.63;15.73;;;;;;;16.59;100.00;98116.66;5075511;28;20210;-66
2023/10/19 18:52:07;;;;;;;22.50;14.73;;;;;;;16.51;100.00;98109.84;5071024;28;20857;-67
2023/10/19 18:54:37;;;;;;;16.47;11.70;;;;;;;16.53;100.00;98104.28;5074613;28;20202;-67